sensor_id;sensor_type;location;lat;lon;timestamp;pressure;altitude;pressure_sealevel;temperature;humidity
70133;BME280;57495;49.922;7.966;2022-09-24T00:00:17;99728.63;;;11.88;81.75
70133;BME280;57495;49.922;7.966;2022-09-24T00:02:18;99719.88;;;11.77;82.03
70133;BME280;57495;49.922;7.966;2022-09-24T00:04:23;99720.31;;;11.73;82.24
70133;BME280;57495;49.922;7.966;2022-09-24T00:06:25;99724.06;;;11.80;82.02
70133;BME280;57495;49.922;7.966;2022-09-24T00:08:28;99720.28;;;11.65;82.16
70133;BME280;57495;49.922;7.966;2022-09-24T00:10:30;99714.81;;;11.74;82.15
70133;BME280;57495;49.922;7.966;2022-09-24T00:12:31;99721.06;;;11.57;82.54
70133;BME280;57495;49.922;7.966;2022-09-24T00:14:33;99709.72;;;11.63;82.35
70133;BME280;57495;49.922;7.966;2022-09-24T00:16:35;99711.44;;;11.46;83.15
70133;BME280;57495;49.922;7.966;2022-09-24T00:18:38;99725.16;;;11.25;84.23
70133;BME280;57495;49.922;7.966;2022-09-24T00:20:40;99719.69;;;11.09;85.70
70133;BME280;57495;49.922;7.966;2022-09-24T00:22:41;99721.75;;;11.15;85.54
70133;BME280;57495;49.922;7.966;2022-09-24T00:24:44;99712.25;;;11.20;85.04
70133;BME280;57495;49.922;7.966;2022-09-24T00:27:04;99712.09;;;11.22;85.22
70133;BME280;57495;49.922;7.966;2022-09-24T00:29:06;99713.75;;;11.23;85.03
70133;BME280;57495;49.922;7.966;2022-09-24T00:31:09;99705.66;;;11.33;84.56
70133;BME280;57495;49.922;7.966;2022-09-24T00:33:10;99711.44;;;11.46;83.50
70133;BME280;57495;49.922;7.966;2022-09-24T00:35:12;99699.19;;;11.44;83.56
70133;BME280;57495;49.922;7.966;2022-09-24T00:37:13;99697.00;;;11.39;83.42
70133;BME280;57495;49.922;7.966;2022-09-24T00:39:15;99700.41;;;11.49;82.81
70133;BME280;57495;49.922;7.966;2022-09-24T00:41:20;99698.22;;;11.45;82.80
70133;BME280;57495;49.922;7.966;2022-09-24T00:43:24;99703.19;;;11.39;82.62
70133;BME280;57495;49.922;7.966;2022-09-24T00:45:27;99696.84;;;11.40;82.51
70133;BME280;57495;49.922;7.966;2022-09-24T00:47:33;99686.22;;;11.31;82.94
70133;BME280;57495;49.922;7.966;2022-09-24T00:49:35;99707.88;;;11.37;82.51
70133;BME280;57495;49.922;7.966;2022-09-24T00:51:40;99697.16;;;11.37;82.76
70133;BME280;57495;49.922;7.966;2022-09-24T00:53:45;99698.16;;;11.36;82.27
70133;BME280;57495;49.922;7.966;2022-09-24T00:55:50;99686.75;;;11.34;82.40
70133;BME280;57495;49.922;7.966;2022-09-24T00:57:57;99691.34;;;11.42;81.93
70133;BME280;57495;49.922;7.966;2022-09-24T00:59:59;99691.25;;;11.52;81.49
70133;BME280;57495;49.922;7.966;2022-09-24T01:02:01;99690.94;;;11.55;81.44
70133;BME280;57495;49.922;7.966;2022-09-24T01:04:03;99687.09;;;11.57;81.08
70133;BME280;57495;49.922;7.966;2022-09-24T01:06:06;99678.50;;;11.46;81.52
70133;BME280;57495;49.922;7.966;2022-09-24T01:08:10;99679.09;;;11.39;81.60
70133;BME280;57495;49.922;7.966;2022-09-24T01:10:12;99668.63;;;11.46;81.13
70133;BME280;57495;49.922;7.966;2022-09-24T01:12:39;99680.38;;;11.27;82.01
70133;BME280;57495;49.922;7.966;2022-09-24T01:15:08;99676.69;;;11.28;81.92
70133;BME280;57495;49.922;7.966;2022-09-24T01:17:18;99671.03;;;11.31;81.93
70133;BME280;57495;49.922;7.966;2022-09-24T01:19:38;99666.97;;;11.27;81.94
70133;BME280;57495;49.922;7.966;2022-09-24T01:21:49;99666.78;;;11.02;82.93
70133;BME280;57495;49.922;7.966;2022-09-24T01:24:11;99672.88;;;11.13;82.01
70133;BME280;57495;49.922;7.966;2022-09-24T01:26:28;99664.19;;;11.11;81.84
70133;BME280;57495;49.922;7.966;2022-09-24T01:28:40;99656.16;;;11.11;81.71
70133;BME280;57495;49.922;7.966;2022-09-24T01:30:57;99654.59;;;11.08;81.89
70133;BME280;57495;49.922;7.966;2022-09-24T01:33:03;99661.16;;;11.14;81.38
70133;BME280;57495;49.922;7.966;2022-09-24T01:35:11;99652.06;;;11.07;81.22
70133;BME280;57495;49.922;7.966;2022-09-24T01:37:18;99653.53;;;11.01;81.02
70133;BME280;57495;49.922;7.966;2022-09-24T01:39:21;99638.66;;;10.98;81.65
70133;BME280;57495;49.922;7.966;2022-09-24T01:41:23;99651.34;;;10.96;81.42
70133;BME280;57495;49.922;7.966;2022-09-24T01:43:26;99650.50;;;10.78;83.19
70133;BME280;57495;49.922;7.966;2022-09-24T01:45:30;99655.25;;;10.84;82.40
70133;BME280;57495;49.922;7.966;2022-09-24T01:47:36;99654.56;;;10.82;82.31
70133;BME280;57495;49.922;7.966;2022-09-24T01:49:38;99638.44;;;10.74;82.86
70133;BME280;57495;49.922;7.966;2022-09-24T01:51:43;99638.75;;;10.71;82.83
70133;BME280;57495;49.922;7.966;2022-09-24T01:53:50;99629.88;;;10.70;82.41
70133;BME280;57495;49.922;7.966;2022-09-24T01:55:58;99631.88;;;10.68;82.91
70133;BME280;57495;49.922;7.966;2022-09-24T01:58:04;99636.91;;;10.53;84.06
70133;BME280;57495;49.922;7.966;2022-09-24T02:00:10;99634.97;;;10.45;84.71
70133;BME280;57495;49.922;7.966;2022-09-24T02:02:16;99630.41;;;10.38;84.73
70133;BME280;57495;49.922;7.966;2022-09-24T02:04:24;99624.47;;;10.44;84.11
70133;BME280;57495;49.922;7.966;2022-09-24T02:06:31;99622.88;;;10.23;84.99
70133;BME280;57495;49.922;7.966;2022-09-24T02:08:38;99632.78;;;10.41;84.00
70133;BME280;57495;49.922;7.966;2022-09-24T02:10:43;99630.50;;;10.46;83.82
70133;BME280;57495;49.922;7.966;2022-09-24T02:12:50;99634.16;;;10.17;84.75
70133;BME280;57495;49.922;7.966;2022-09-24T02:14:55;99635.38;;;10.05;85.31
70133;BME280;57495;49.922;7.966;2022-09-24T02:17:00;99637.44;;;9.83;87.35
70133;BME280;57495;49.922;7.966;2022-09-24T02:19:05;99638.50;;;9.63;88.26
70133;BME280;57495;49.922;7.966;2022-09-24T02:21:10;99638.91;;;9.68;88.36
70133;BME280;57495;49.922;7.966;2022-09-24T02:23:14;99642.81;;;9.26;90.64
70133;BME280;57495;49.922;7.966;2022-09-24T02:25:20;99653.47;;;9.36;89.85
70133;BME280;57495;49.922;7.966;2022-09-24T02:27:24;99644.91;;;9.42;89.69
70133;BME280;57495;49.922;7.966;2022-09-24T02:29:27;99652.97;;;9.70;87.84
70133;BME280;57495;49.922;7.966;2022-09-24T02:31:30;99645.84;;;9.89;86.45
70133;BME280;57495;49.922;7.966;2022-09-24T02:33:34;99636.56;;;9.93;86.52
70133;BME280;57495;49.922;7.966;2022-09-24T02:35:54;99631.69;;;10.06;85.89
70133;BME280;57495;49.922;7.966;2022-09-24T02:37:57;99638.47;;;10.00;86.77
70133;BME280;57495;49.922;7.966;2022-09-24T02:39:58;99632.88;;;9.94;87.43
70133;BME280;57495;49.922;7.966;2022-09-24T02:42:00;99627.44;;;9.85;87.75
70133;BME280;57495;49.922;7.966;2022-09-24T02:44:03;99624.56;;;9.97;87.55
70133;BME280;57495;49.922;7.966;2022-09-24T02:46:05;99630.31;;;10.02;87.11
70133;BME280;57495;49.922;7.966;2022-09-24T02:48:07;99631.44;;;9.99;86.68
70133;BME280;57495;49.922;7.966;2022-09-24T02:50:08;99634.81;;;10.01;87.33
70133;BME280;57495;49.922;7.966;2022-09-24T02:52:10;99639.91;;;9.95;87.63
70133;BME280;57495;49.922;7.966;2022-09-24T02:54:13;99649.63;;;9.96;87.57
70133;BME280;57495;49.922;7.966;2022-09-24T02:56:14;99649.13;;;9.73;88.36
70133;BME280;57495;49.922;7.966;2022-09-24T02:58:15;99632.09;;;9.83;87.83
70133;BME280;57495;49.922;7.966;2022-09-24T03:00:17;99631.69;;;9.78;88.15
70133;BME280;57495;49.922;7.966;2022-09-24T03:02:20;99630.16;;;9.76;88.02
70133;BME280;57495;49.922;7.966;2022-09-24T03:04:21;99620.59;;;9.83;87.48
70133;BME280;57495;49.922;7.966;2022-09-24T03:06:24;99627.16;;;9.89;87.20
70133;BME280;57495;49.922;7.966;2022-09-24T03:08:26;99611.97;;;9.89;87.24
70133;BME280;57495;49.922;7.966;2022-09-24T03:10:30;99606.97;;;10.04;86.30
70133;BME280;57495;49.922;7.966;2022-09-24T03:12:32;99604.00;;;10.07;85.99
70133;BME280;57495;49.922;7.966;2022-09-24T03:14:33;99600.03;;;10.11;85.58
70133;BME280;57495;49.922;7.966;2022-09-24T03:16:34;99600.81;;;9.94;86.23
70133;BME280;57495;49.922;7.966;2022-09-24T03:18:36;99597.78;;;9.89;87.24
70133;BME280;57495;49.922;7.966;2022-09-24T03:20:37;99599.03;;;9.84;87.29
70133;BME280;57495;49.922;7.966;2022-09-24T03:22:39;99592.97;;;9.92;87.03
70133;BME280;57495;49.922;7.966;2022-09-24T03:24:40;99590.09;;;10.03;86.11
70133;BME280;57495;49.922;7.966;2022-09-24T03:26:43;99593.75;;;10.02;85.47
70133;BME280;57495;49.922;7.966;2022-09-24T03:28:45;99588.34;;;10.12;85.29
70133;BME280;57495;49.922;7.966;2022-09-24T03:30:46;99592.69;;;10.13;85.33
70133;BME280;57495;49.922;7.966;2022-09-24T03:32:59;99592.41;;;10.16;85.06
70133;BME280;57495;49.922;7.966;2022-09-24T03:35:00;99595.38;;;10.13;85.06
70133;BME280;57495;49.922;7.966;2022-09-24T03:37:02;99590.31;;;10.10;85.46
70133;BME280;57495;49.922;7.966;2022-09-24T03:39:03;99607.25;;;10.01;86.04
70133;BME280;57495;49.922;7.966;2022-09-24T03:41:06;99596.75;;;9.62;88.51
70133;BME280;57495;49.922;7.966;2022-09-24T03:43:09;99598.34;;;9.55;89.24
70133;BME280;57495;49.922;7.966;2022-09-24T03:45:10;99593.63;;;9.76;88.44
70133;BME280;57495;49.922;7.966;2022-09-24T03:47:12;99594.09;;;9.90;87.62
70133;BME280;57495;49.922;7.966;2022-09-24T03:49:13;99596.03;;;9.97;87.06
70133;BME280;57495;49.922;7.966;2022-09-24T03:51:16;99599.56;;;9.98;86.92
70133;BME280;57495;49.922;7.966;2022-09-24T03:53:19;99606.66;;;9.52;89.50
70133;BME280;57495;49.922;7.966;2022-09-24T03:55:21;99607.31;;;9.26;91.32
70133;BME280;57495;49.922;7.966;2022-09-24T03:57:22;99600.19;;;9.54;90.08
70133;BME280;57495;49.922;7.966;2022-09-24T03:59:25;99601.31;;;9.52;89.75
70133;BME280;57495;49.922;7.966;2022-09-24T04:01:26;99597.97;;;9.50;89.78
70133;BME280;57495;49.922;7.966;2022-09-24T04:03:28;99602.25;;;9.60;89.18
70133;BME280;57495;49.922;7.966;2022-09-24T04:05:29;99597.78;;;9.61;88.88
70133;BME280;57495;49.922;7.966;2022-09-24T04:07:31;99586.41;;;9.59;88.93
70133;BME280;57495;49.922;7.966;2022-09-24T04:09:32;99597.66;;;9.53;89.23
70133;BME280;57495;49.922;7.966;2022-09-24T04:11:34;99589.50;;;9.54;88.98
70133;BME280;57495;49.922;7.966;2022-09-24T04:13:35;99588.44;;;9.37;89.45
70133;BME280;57495;49.922;7.966;2022-09-24T04:15:38;99594.69;;;9.08;91.42
70133;BME280;57495;49.922;7.966;2022-09-24T04:17:39;99601.63;;;8.72;94.01
70133;BME280;57495;49.922;7.966;2022-09-24T04:19:41;99598.41;;;8.68;94.97
70133;BME280;57495;49.922;7.966;2022-09-24T04:21:43;99592.53;;;8.55;95.61
70133;BME280;57495;49.922;7.966;2022-09-24T04:23:44;99592.38;;;8.57;95.97
70133;BME280;57495;49.922;7.966;2022-09-24T04:25:46;99587.19;;;8.65;95.98
70133;BME280;57495;49.922;7.966;2022-09-24T04:27:52;99579.41;;;9.01;93.71
70133;BME280;57495;49.922;7.966;2022-09-24T04:29:53;99572.50;;;9.08;92.88
70133;BME280;57495;49.922;7.966;2022-09-24T04:31:56;99578.28;;;9.13;92.61
70133;BME280;57495;49.922;7.966;2022-09-24T04:33:58;99564.78;;;9.15;92.37
70133;BME280;57495;49.922;7.966;2022-09-24T04:35:59;99558.88;;;9.21;91.74
70133;BME280;57495;49.922;7.966;2022-09-24T04:38:02;99555.91;;;9.24;91.55
70133;BME280;57495;49.922;7.966;2022-09-24T04:40:04;99556.59;;;9.26;90.99
70133;BME280;57495;49.922;7.966;2022-09-24T04:42:15;99566.00;;;9.30;91.05
70133;BME280;57495;49.922;7.966;2022-09-24T04:44:16;99560.25;;;9.35;90.63
70133;BME280;57495;49.922;7.966;2022-09-24T04:46:18;99562.03;;;9.44;90.04
70133;BME280;57495;49.922;7.966;2022-09-24T04:48:20;99570.81;;;9.54;89.07
70133;BME280;57495;49.922;7.966;2022-09-24T04:50:24;99585.97;;;9.26;90.40
70133;BME280;57495;49.922;7.966;2022-09-24T04:52:25;99580.16;;;8.83;92.58
70133;BME280;57495;49.922;7.966;2022-09-24T04:54:28;99579.00;;;9.05;92.12
70133;BME280;57495;49.922;7.966;2022-09-24T04:56:30;99570.53;;;9.20;91.45
70133;BME280;57495;49.922;7.966;2022-09-24T04:58:31;99578.09;;;9.24;90.84
70133;BME280;57495;49.922;7.966;2022-09-24T05:00:33;99572.72;;;8.67;94.36
70133;BME280;57495;49.922;7.966;2022-09-24T05:02:34;99576.13;;;8.50;96.40
70133;BME280;57495;49.922;7.966;2022-09-24T05:04:37;99570.28;;;8.94;94.21
70133;BME280;57495;49.922;7.966;2022-09-24T05:06:38;99564.25;;;9.11;92.60
70133;BME280;57495;49.922;7.966;2022-09-24T05:08:40;99579.06;;;9.23;91.45
70133;BME280;57495;49.922;7.966;2022-09-24T05:10:42;99575.38;;;9.34;90.50
70133;BME280;57495;49.922;7.966;2022-09-24T05:12:43;99593.22;;;9.34;90.49
70133;BME280;57495;49.922;7.966;2022-09-24T05:14:44;99597.59;;;9.35;89.99
70133;BME280;57495;49.922;7.966;2022-09-24T05:16:46;99601.97;;;9.26;91.19
70133;BME280;57495;49.922;7.966;2022-09-24T05:18:47;99598.22;;;8.99;93.04
70133;BME280;57495;49.922;7.966;2022-09-24T05:20:50;99597.50;;;9.17;92.37
70133;BME280;57495;49.922;7.966;2022-09-24T05:22:51;99583.84;;;9.29;91.78
70133;BME280;57495;49.922;7.966;2022-09-24T05:24:53;99584.50;;;9.41;91.19
70133;BME280;57495;49.922;7.966;2022-09-24T05:26:54;99588.94;;;9.51;90.45
70133;BME280;57495;49.922;7.966;2022-09-24T05:29:09;99586.41;;;9.59;89.84
70133;BME280;57495;49.922;7.966;2022-09-24T05:31:11;99587.94;;;9.61;90.25
70133;BME280;57495;49.922;7.966;2022-09-24T05:33:13;99592.81;;;9.66;90.26
70133;BME280;57495;49.922;7.966;2022-09-24T05:35:14;99589.16;;;9.67;90.02
70133;BME280;57495;49.922;7.966;2022-09-24T05:37:17;99591.44;;;9.62;90.76
70133;BME280;57495;49.922;7.966;2022-09-24T05:39:18;99588.88;;;9.70;90.23
70133;BME280;57495;49.922;7.966;2022-09-24T05:41:20;99595.31;;;9.77;90.17
70133;BME280;57495;49.922;7.966;2022-09-24T05:43:20;99596.69;;;9.81;90.13
70133;BME280;57495;49.922;7.966;2022-09-24T05:45:22;99600.34;;;9.80;89.87
70133;BME280;57495;49.922;7.966;2022-09-24T05:47:24;99599.22;;;9.83;89.56
70133;BME280;57495;49.922;7.966;2022-09-24T05:49:25;99600.34;;;9.80;89.59
70133;BME280;57495;49.922;7.966;2022-09-24T05:51:27;99597.53;;;9.82;90.08
70133;BME280;57495;49.922;7.966;2022-09-24T05:53:29;99602.25;;;9.88;89.88
70133;BME280;57495;49.922;7.966;2022-09-24T05:55:31;99605.47;;;9.92;89.45
70133;BME280;57495;49.922;7.966;2022-09-24T05:57:33;99599.03;;;9.84;89.39
70133;BME280;57495;49.922;7.966;2022-09-24T05:59:34;99609.28;;;9.89;90.09
70133;BME280;57495;49.922;7.966;2022-09-24T06:01:35;99600.03;;;9.83;91.70
70133;BME280;57495;49.922;7.966;2022-09-24T06:03:37;99606.31;;;9.64;92.25
70133;BME280;57495;49.922;7.966;2022-09-24T06:05:42;99608.41;;;9.33;95.97
70133;BME280;57495;49.922;7.966;2022-09-24T06:07:44;99604.47;;;9.37;95.13
70133;BME280;57495;49.922;7.966;2022-09-24T06:09:46;99605.88;;;9.69;93.85
70133;BME280;57495;49.922;7.966;2022-09-24T06:11:48;99603.56;;;9.84;93.78
70133;BME280;57495;49.922;7.966;2022-09-24T06:13:50;99602.81;;;9.92;92.96
70133;BME280;57495;49.922;7.966;2022-09-24T06:15:51;99604.22;;;9.96;92.61
70133;BME280;57495;49.922;7.966;2022-09-24T06:17:53;99603.50;;;9.94;92.86
70133;BME280;57495;49.922;7.966;2022-09-24T06:19:54;99606.00;;;10.05;93.14
70133;BME280;57495;49.922;7.966;2022-09-24T06:21:57;99601.78;;;9.75;92.62
70133;BME280;57495;49.922;7.966;2022-09-24T06:23:58;99598.63;;;9.89;92.52
70133;BME280;57495;49.922;7.966;2022-09-24T06:26:02;99596.34;;;9.94;92.94
70133;BME280;57495;49.922;7.966;2022-09-24T06:28:03;99592.91;;;10.02;92.67
70133;BME280;57495;49.922;7.966;2022-09-24T06:30:06;99590.28;;;10.20;92.85
70133;BME280;57495;49.922;7.966;2022-09-24T06:32:08;99594.28;;;10.34;92.60
70133;BME280;57495;49.922;7.966;2022-09-24T06:34:09;99597.63;;;10.36;92.22
70133;BME280;57495;49.922;7.966;2022-09-24T06:36:10;99598.66;;;10.35;91.51
70133;BME280;57495;49.922;7.966;2022-09-24T06:38:14;99604.88;;;10.25;92.07
70133;BME280;57495;49.922;7.966;2022-09-24T06:40:15;99610.47;;;10.32;91.35
70133;BME280;57495;49.922;7.966;2022-09-24T06:42:18;99611.00;;;10.36;92.54
70133;BME280;57495;49.922;7.966;2022-09-24T06:44:20;99610.09;;;10.45;91.04
70133;BME280;57495;49.922;7.966;2022-09-24T06:46:21;99620.78;;;10.45;90.62
70133;BME280;57495;49.922;7.966;2022-09-24T06:48:25;99623.25;;;10.29;91.21
70133;BME280;57495;49.922;7.966;2022-09-24T06:50:28;99624.44;;;9.98;93.43
70133;BME280;57495;49.922;7.966;2022-09-24T06:52:30;99621.06;;;9.96;94.90
70133;BME280;57495;49.922;7.966;2022-09-24T06:54:32;99622.66;;;9.89;94.55
70133;BME280;57495;49.922;7.966;2022-09-24T06:56:33;99615.31;;;9.91;92.99
70133;BME280;57495;49.922;7.966;2022-09-24T06:58:36;99617.59;;;10.14;91.41
70133;BME280;57495;49.922;7.966;2022-09-24T07:00:38;99613.47;;;10.01;89.01
70133;BME280;57495;49.922;7.966;2022-09-24T07:02:39;99612.19;;;10.23;88.73
70133;BME280;57495;49.922;7.966;2022-09-24T07:04:41;99623.00;;;10.04;90.72
70133;BME280;57495;49.922;7.966;2022-09-24T07:06:42;99625.44;;;10.15;89.30
70133;BME280;57495;49.922;7.966;2022-09-24T07:09:01;99624.47;;;10.44;88.47
70133;BME280;57495;49.922;7.966;2022-09-24T07:11:02;99616.66;;;10.69;87.89
70133;BME280;57495;49.922;7.966;2022-09-24T07:13:04;99629.56;;;10.37;89.38
70133;BME280;57495;49.922;7.966;2022-09-24T07:15:08;99629.16;;;10.32;89.94
70133;BME280;57495;49.922;7.966;2022-09-24T07:17:09;99632.84;;;10.49;88.67
70133;BME280;57495;49.922;7.966;2022-09-24T07:19:11;99640.06;;;10.67;87.10
70133;BME280;57495;49.922;7.966;2022-09-24T07:21:12;99642.31;;;10.97;88.10
70133;BME280;57495;49.922;7.966;2022-09-24T07:23:13;99637.59;;;10.91;85.49
70133;BME280;57495;49.922;7.966;2022-09-24T07:25:15;99628.72;;;11.09;86.28
70133;BME280;57495;49.922;7.966;2022-09-24T07:27:16;99622.47;;;10.82;85.02
70133;BME280;57495;49.922;7.966;2022-09-24T07:29:20;99625.41;;;10.97;84.44
70133;BME280;57495;49.922;7.966;2022-09-24T07:31:22;99614.16;;;11.11;85.39
70133;BME280;57495;49.922;7.966;2022-09-24T07:33:25;99617.06;;;11.18;85.92
70133;BME280;57495;49.922;7.966;2022-09-24T07:35:27;99612.66;;;11.09;87.40
70133;BME280;57495;49.922;7.966;2022-09-24T07:37:29;99621.25;;;11.20;86.94
70133;BME280;57495;49.922;7.966;2022-09-24T07:39:31;99629.78;;;11.76;90.47
70133;BME280;57495;49.922;7.966;2022-09-24T07:41:33;99627.91;;;11.43;85.91
70133;BME280;57495;49.922;7.966;2022-09-24T07:43:34;99625.59;;;11.21;87.10
70133;BME280;57495;49.922;7.966;2022-09-24T07:45:35;99631.50;;;10.81;87.59
70133;BME280;57495;49.922;7.966;2022-09-24T07:47:39;99633.00;;;11.01;86.87
70133;BME280;57495;49.922;7.966;2022-09-24T07:49:40;99626.59;;;10.94;87.04
70133;BME280;57495;49.922;7.966;2022-09-24T07:51:42;99629.16;;;10.86;86.85
70133;BME280;57495;49.922;7.966;2022-09-24T07:53:43;99636.81;;;10.99;87.80
70133;BME280;57495;49.922;7.966;2022-09-24T07:55:45;99637.06;;;10.88;88.63
70133;BME280;57495;49.922;7.966;2022-09-24T07:57:46;99643.06;;;11.08;89.51
70133;BME280;57495;49.922;7.966;2022-09-24T07:59:47;99635.00;;;11.26;87.71
70133;BME280;57495;49.922;7.966;2022-09-24T08:01:50;99647.50;;;11.17;89.94
70133;BME280;57495;49.922;7.966;2022-09-24T08:03:53;99645.84;;;10.80;87.35
70133;BME280;57495;49.922;7.966;2022-09-24T08:05:54;99651.06;;;11.26;87.01
70133;BME280;57495;49.922;7.966;2022-09-24T08:07:58;99655.78;;;11.58;85.66
70133;BME280;57495;49.922;7.966;2022-09-24T08:09:59;99655.41;;;12.13;84.26
70133;BME280;57495;49.922;7.966;2022-09-24T08:12:01;99642.47;;;12.60;82.86
70133;BME280;57495;49.922;7.966;2022-09-24T08:14:02;99648.81;;;12.42;80.49
70133;BME280;57495;49.922;7.966;2022-09-24T08:16:04;99646.53;;;12.88;79.26
70133;BME280;57495;49.922;7.966;2022-09-24T08:18:06;99640.13;;;13.22;78.19
70133;BME280;57495;49.922;7.966;2022-09-24T08:20:09;99645.84;;;13.19;77.00
70133;BME280;57495;49.922;7.966;2022-09-24T08:22:11;99643.00;;;13.04;77.57
70133;BME280;57495;49.922;7.966;2022-09-24T08:24:13;99641.66;;;13.17;77.46
70133;BME280;57495;49.922;7.966;2022-09-24T08:26:14;99640.47;;;13.36;77.09
70133;BME280;57495;49.922;7.966;2022-09-24T08:28:16;99641.03;;;13.79;78.77
70133;BME280;57495;49.922;7.966;2022-09-24T08:30:18;99637.19;;;14.21;77.42
70133;BME280;57495;49.922;7.966;2022-09-24T08:32:20;99636.66;;;14.25;74.50
70133;BME280;57495;49.922;7.966;2022-09-24T08:34:21;99646.31;;;13.56;78.24
70133;BME280;57495;49.922;7.966;2022-09-24T08:36:25;99646.13;;;13.65;77.96
70133;BME280;57495;49.922;7.966;2022-09-24T08:38:27;99654.94;;;13.34;78.80
70133;BME280;57495;49.922;7.966;2022-09-24T08:40:30;99650.56;;;13.09;80.28
70133;BME280;57495;49.922;7.966;2022-09-24T11:42:15;99572.09;;;18.80;60.85
70133;BME280;57495;49.922;7.966;2022-09-24T11:44:40;99567.13;;;18.83;60.83
70133;BME280;57495;49.922;7.966;2022-09-24T11:46:54;99562.97;;;18.87;60.77
70133;BME280;57495;49.922;7.966;2022-09-24T11:49:11;99559.41;;;19.00;61.71
70133;BME280;57495;49.922;7.966;2022-09-24T11:51:24;99556.28;;;19.03;61.73
70133;BME280;57495;49.922;7.966;2022-09-24T11:53:33;99547.53;;;19.15;60.71
70133;BME280;57495;49.922;7.966;2022-09-24T11:55:41;99548.72;;;19.32;61.02
70133;BME280;57495;49.922;7.966;2022-09-24T11:57:50;99549.59;;;19.33;58.71
70133;BME280;57495;49.922;7.966;2022-09-24T11:59:58;99548.72;;;19.39;58.79
70133;BME280;57495;49.922;7.966;2022-09-24T12:02:04;99541.00;;;19.49;59.08
70133;BME280;57495;49.922;7.966;2022-09-24T12:04:13;99550.34;;;19.60;58.98
70133;BME280;57495;49.922;7.966;2022-09-24T12:06:19;99547.22;;;19.63;58.34
70133;BME280;57495;49.922;7.966;2022-09-24T12:08:25;99545.78;;;19.54;58.46
70133;BME280;57495;49.922;7.966;2022-09-24T12:10:32;99534.72;;;19.55;58.24
70133;BME280;57495;49.922;7.966;2022-09-24T12:12:38;99532.38;;;19.65;58.27
70133;BME280;57495;49.922;7.966;2022-09-24T12:14:47;99523.22;;;19.73;58.80
70133;BME280;57495;49.922;7.966;2022-09-24T12:16:55;99524.88;;;19.61;58.02
70133;BME280;57495;49.922;7.966;2022-09-24T12:19:02;99522.38;;;19.59;60.14
70133;BME280;57495;49.922;7.966;2022-09-24T12:21:10;99518.63;;;19.60;58.74
70133;BME280;57495;49.922;7.966;2022-09-24T12:23:16;99517.38;;;19.63;58.56
70133;BME280;57495;49.922;7.966;2022-09-24T12:25:19;99518.19;;;19.63;57.89
70133;BME280;57495;49.922;7.966;2022-09-24T12:27:24;99518.59;;;19.67;58.70
70133;BME280;57495;49.922;7.966;2022-09-24T12:29:39;99522.56;;;19.71;58.49
70133;BME280;57495;49.922;7.966;2022-09-24T12:32:10;99521.91;;;19.69;58.39
70133;BME280;57495;49.922;7.966;2022-09-24T12:34:38;99527.44;;;19.49;60.47
70133;BME280;57495;49.922;7.966;2022-09-24T12:36:52;99526.44;;;19.30;59.40
70133;BME280;57495;49.922;7.966;2022-09-24T12:39:00;99526.00;;;19.33;60.07
70133;BME280;57495;49.922;7.966;2022-09-24T12:41:25;99525.78;;;19.41;59.59
70133;BME280;57495;49.922;7.966;2022-09-24T12:43:31;99510.34;;;19.42;59.56
70133;BME280;57495;49.922;7.966;2022-09-24T12:45:34;99517.88;;;19.33;59.89
70133;BME280;57495;49.922;7.966;2022-09-24T12:47:45;99513.31;;;19.13;59.06
70133;BME280;57495;49.922;7.966;2022-09-24T12:49:50;99526.03;;;19.13;58.26
70133;BME280;57495;49.922;7.966;2022-09-24T12:51:55;99524.19;;;18.87;59.24
70133;BME280;57495;49.922;7.966;2022-09-24T12:54:03;99519.63;;;19.01;59.34
70133;BME280;57495;49.922;7.966;2022-09-24T12:56:06;99526.69;;;18.75;61.99
70133;BME280;57495;49.922;7.966;2022-09-24T12:58:26;99521.44;;;18.47;61.08
70133;BME280;57495;49.922;7.966;2022-09-24T13:00:35;99530.63;;;18.59;61.26
70133;BME280;57495;49.922;7.966;2022-09-24T13:02:45;99523.31;;;18.60;60.94
70133;BME280;57495;49.922;7.966;2022-09-24T13:04:50;99526.66;;;18.55;61.97
70133;BME280;57495;49.922;7.966;2022-09-24T13:06:53;99515.81;;;18.48;62.35
70133;BME280;57495;49.922;7.966;2022-09-24T13:08:54;99512.91;;;18.50;63.34
70133;BME280;57495;49.922;7.966;2022-09-24T13:10:57;99513.13;;;18.42;63.35
70133;BME280;57495;49.922;7.966;2022-09-24T13:13:00;99513.94;;;18.35;63.43
70133;BME280;57495;49.922;7.966;2022-09-24T13:15:05;99511.84;;;18.31;63.33
70133;BME280;57495;49.922;7.966;2022-09-24T13:17:13;99511.19;;;18.22;65.06
70133;BME280;57495;49.922;7.966;2022-09-24T13:19:26;99514.91;;;18.08;65.26
70133;BME280;57495;49.922;7.966;2022-09-24T13:21:30;99505.75;;;17.95;66.52
70133;BME280;57495;49.922;7.966;2022-09-24T13:23:43;99513.44;;;17.99;64.91
70133;BME280;57495;49.922;7.966;2022-09-24T13:25:53;99510.13;;;18.03;63.56
70133;BME280;57495;49.922;7.966;2022-09-24T13:27:58;99506.78;;;18.01;64.67
70133;BME280;57495;49.922;7.966;2022-09-24T13:30:12;99500.75;;;18.06;64.69
70133;BME280;57495;49.922;7.966;2022-09-24T13:32:17;99504.13;;;18.14;64.70
70133;BME280;57495;49.922;7.966;2022-09-24T13:34:25;99502.47;;;18.20;64.23
70133;BME280;57495;49.922;7.966;2022-09-24T13:36:32;99501.22;;;18.16;64.65
70133;BME280;57495;49.922;7.966;2022-09-24T13:38:37;99508.50;;;18.35;63.88
70133;BME280;57495;49.922;7.966;2022-09-24T13:40:47;99506.00;;;18.27;63.95
70133;BME280;57495;49.922;7.966;2022-09-24T13:42:56;99510.81;;;18.25;63.55
70133;BME280;57495;49.922;7.966;2022-09-24T13:45:01;99510.59;;;18.33;63.85
70133;BME280;57495;49.922;7.966;2022-09-24T13:47:11;99512.28;;;18.34;63.67
70133;BME280;57495;49.922;7.966;2022-09-24T13:49:17;99505.38;;;18.32;64.79
70133;BME280;57495;49.922;7.966;2022-09-24T13:51:24;99509.16;;;18.31;65.06
70133;BME280;57495;49.922;7.966;2022-09-24T13:53:29;99505.81;;;18.35;64.55
70133;BME280;57495;49.922;7.966;2022-09-24T13:55:33;99502.28;;;18.35;64.83
70133;BME280;57495;49.922;7.966;2022-09-24T13:57:42;99494.56;;;18.32;65.07
70133;BME280;57495;49.922;7.966;2022-09-24T13:59:43;99504.16;;;18.34;65.02
70133;BME280;57495;49.922;7.966;2022-09-24T14:01:44;99502.06;;;18.50;66.85